Itaporanga, Brazil
Current Conditions -  °F | °C
As of 1:00 PM on Wednesday 28 Jan 2015 (Local Time) from SBJU Reporting Station
Clear Clear  
Wind Chill: 97°   Ceiling: Unl
Heat Index: 97°   Visibility: 6mi
Dew Point: 55°   Wind: 12mph
Humidity: 25%   Direction: 170°S
Pressure: 29.94"   Gusts: NA
Location:  7.3°S, 38.15°W
Report Text: SBJU 281600Z 17010KT CAVOK 36/13 Q1014
Loading
Personal Weather Stations






























Interactive Weather Map New forecast layout! Learn more

10-Day Weather Forecast

Advertisements
Track Severe Weather on mobile